Sunday, November 19, 2017, 9:11 AM EST
Back to Local

KTTN, Trenton Mercer County Airport

Location: Trenton, NJ, United States Lat: 40.283
Local Time: 9:11 AM EST (14:11 GMT) Lon: -74.817
Time Zone: US/Eastern Elev: 213 ft

Show me the last for .
Show Decoded

2017-11-19 08:53 METAR KTTN 191353Z 28013G27KT 10SM BKN039 10/02 A2943 RMK AO2 PK WND 27031/1315
                 PRESRR SLP961 T01000022 =
2017-11-19 07:53 METAR KTTN 191253Z 27015G29KT 10SM BKN036 11/03 A2938 RMK AO2 PK WND 28033/1235
                 SLP943 T01060028 =
2017-11-19 06:53 METAR KTTN 191153Z 26017G27KT 10SM FEW015 SCT027 OVC037 14/09 A2929 RMK AO2 PK
                 WND 26032/1139 RAB1054E53 SLP913 P0006 60029 70050 T01390094 10156 20139 53008 =
2017-11-19 06:51 METAR KTTN 191151Z 26014G28KT 10SM -RA FEW015 SCT027 OVC037 14/09 A2929 RMK AO2
                 PK WND 26032/1139 RAB1054 PRESRR P0006 =
2017-11-19 05:53 METAR KTTN 191053Z AUTO 22015G22KT 10SM SCT011 BKN016 OVC023 15/13 A2924 RMK AO2
                 RAE52 SLP895 P0003 T01500133 =
2017-11-19 04:53 METAR KTTN 190953Z AUTO 21016G24KT 6SM RA BR BKN014 OVC021 15/13 A2927 RMK AO2
                 SLP905 P0003 T01500133 =
2017-11-19 03:53 METAR KTTN 190853Z AUTO 22012G21KT 6SM -RA BR SCT010 OVC014 14/13 A2927 RMK AO2
                 SLP907 P0010 60017 T01440133 58027 =
2017-11-19 03:22 METAR KTTN 190822Z AUTO 20015G21KT 7SM -RA BKN013 BKN025 OVC050 14/13 A2930 RMK
                 AO2 P0003 T01390128 =
2017-11-19 03:03 METAR KTTN 190803Z AUTO 21014G22KT 8SM -RA SCT016 BKN025 OVC070 14/13 A2931 RMK
                 AO2 P0001 T01440128 =
2017-11-19 02:53 METAR KTTN 190753Z AUTO 20015G23KT 7SM -RA SCT024 BKN050 OVC065 14/13 A2932 RMK
                 AO2 PK WND 23028/0705 RAB0657 SLP923 P0003 T01440128 =
2017-11-19 01:53 METAR KTTN 190653Z AUTO 22018G24KT 10SM BKN060 16/11 A2934 RMK AO2 RAE32 SLP928
                 P0004 T01560111 =
2017-11-19 01:28 METAR KTTN 190628Z AUTO 22013KT 9SM -RA FEW045 SCT060 BKN080 14/11 A2934 RMK AO2
                 P0004 T01440111 =
2017-11-19 01:13 METAR KTTN 190613Z AUTO 21015G20KT 10SM VCTS -RA FEW080 OVC100 15/11 A2934 RMK
                 AO2 P0000 T01500106 =
2017-11-19 00:53 METAR KTTN 190553Z AUTO 21013G19KT 10SM -RA SCT075 OVC110 14/11 A2935 RMK AO2
                 SLP934 P0000 60001 T01440106 10144 20078 56037 =
2017-11-18 23:53 METAR KTTN 190453Z AUTO 19012G19KT 10SM -RA FEW080 BKN110 14/10 A2939 RMK AO2
                 RAB35 SLP946 P0000 T01390100 401391033 =
2017-11-18 22:53 METAR KTTN 190353Z AUTO 17007KT 10SM FEW095 11/08 A2941 RMK AO2 SLP956 T01060083
                 =
2017-11-18 21:53 METAR KTTN 190253Z 16005KT 10SM FEW110 09/07 A2947 RMK AO2 SLP973 60001
                 T00890072 58042 =
2017-11-18 20:53 METAR KTTN 190153Z 14005KT 10SM FEW100 08/07 A2951 RMK AO2 RAE0054B25E35 SLP987
                 P0000 T00830072 =
2017-11-18 19:53 METAR KTTN 190053Z 14004KT 10SM -RA SCT090 BKN110 08/07 A2955 RMK AO2
                 RAB2355E04B30 SLP002 P0001 T00830067 =
2017-11-18 18:53 METAR KTTN 182353Z 15005KT 10SM OVC060 09/07 A2959 RMK AO2 RAE21 SLP015 P0000
                 60020 T00890067 10100 20078 58020 =
2017-11-18 17:53 METAR KTTN 182253Z 00000KT 5SM -RA BR OVC065 08/07 A2962 RMK AO2 SLP024 P0011
                 T00780072 =
2017-11-18 16:53 METAR KTTN 182153Z 00000KT 5SM -RA BR BKN055 BKN065 OVC080 08/07 A2964 RMK AO2
                 SLP031 P0006 T00830067 =
2017-11-18 15:53 METAR KTTN 182053Z 00000KT 9SM -RA FEW060 BKN075 OVC100 09/05 A2965 RMK AO2
                 SLP035 P0001 60003 T00940050 56034 =
2017-11-18 14:53 METAR KTTN 181953Z 18007KT 10SM -RA FEW060 OVC090 10/04 A2967 RMK AO2 SLP041
                 P0000 T01000044 =
2017-11-18 13:53 METAR KTTN 181853Z 20004KT 7SM -RA BKN070 OVC090 09/06 A2971 RMK AO2 SLP056
                 P0002 T00940056 =
2017-11-18 12:53 METAR KTTN 181753Z 17008KT 10SM -RA OVC095 10/03 A2975 RMK AO2 RAB25 SLP069
                 P0000 60000 T01000033 10100 21017 58049 =
2017-11-18 11:53 METAR KTTN 181653Z 20012G16KT 10SM CLR 09/03 A2980 RMK AO2 SLP087 T00940028 =
2017-11-18 10:53 METAR KTTN 181553Z 18006KT 10SM CLR 07/03 A2987 RMK AO2 SLP110 T00720028 =
2017-11-18 09:53 METAR KTTN 181453Z 00000KT 10SM CLR 04/01 A2989 RMK AO2 SLP118 T00390011 58028 =

Support USWX by starting your Amazon purchase here.